Terminal Aerodrome Forecast
Issued by NWS Bismarck, ND

Home | Current Version | Previous Version | Graphics & Text | Print | Product List | Glossary On
Versions: 1 2 3 4 5 6 7 8 9 10 11 12 13 14 15 16 17 18 19
000
FTUS43 KBIS 212333
TAFISN
TAF
KISN 212333Z 2200/2224 31008KT P6SM FEW130 FEW250
     FM220400 34005KT P6SM VCSH SCT060 BKN090
     FM220900 28012KT P6SM FEW060 FEW200
     FM221600 30025G35KT P6SM SCT070=

USA.gov is the U.S. government's official web portal to all federal, state and local government web resources and services.